KIKG

Kleberg County Airport

Kingsville, Texas, USA
METAR KIKG 211255Z AUTO 11007KT 5SM BR OVC006 22/22 A2999 RMK AO2 T02230223
Observed Flight Rules
Feb-21 @ 12:55 UTC (18 minutes ago) Instrument Flight Rules
Wind Visibility Clouds Conditions
110° at 7 knots 5 miles
  • Overcast at 600' AGL
  • Mist
Temperatures Readings
Current 22°C / 72°F
Dewpoint 22°C / 72°F
Humidity 100%
Altimeter 29.99" Hg
Pressure 1016 hPa
Elevation 40
METAR KIKG 211255Z AUTO 11007KT 5SM BR OVC006 22/22 A2999 RMK AO2 T02230223
Observed Flight Rules
Feb-21 @ 12:55 UTC
(18 minutes ago)
IFR
Wind Visibility
110° at 7 knots 5 miles
Clouds
  • Overcast at 600' AGL
Conditions
  • Mist
Temperature Dewpoint
22°C / 72°F 22°C / 72°F
Humidity Altimeter Pressure
100% 29.99" Hg 1016 hPa